createdAt,value
2022-12-13T00:03:06.016Z,-6.10
2022-12-13T00:06:28.130Z,-6.10
2022-12-13T00:09:49.691Z,-6.00
2022-12-13T00:13:11.389Z,-6.00
2022-12-13T00:16:33.051Z,-6.00
2022-12-13T00:19:55.971Z,-6.20
2022-12-13T00:23:17.542Z,-6.20
2022-12-13T00:26:39.181Z,-6.30
2022-12-13T00:30:00.739Z,-6.30
2022-12-13T00:33:22.289Z,-6.40
2022-12-13T00:36:45.309Z,-6.40
2022-12-13T00:40:07.549Z,-6.50
2022-12-13T00:43:29.079Z,-6.60
2022-12-13T00:46:50.641Z,-6.60
2022-12-13T00:50:12.318Z,-6.60
2022-12-13T00:53:35.458Z,-6.60
2022-12-13T00:56:57.023Z,-6.70
2022-12-13T01:00:19.769Z,-6.70
2022-12-13T01:03:41.635Z,-6.70
2022-12-13T01:07:03.280Z,-6.80
2022-12-13T01:10:26.195Z,-6.80
2022-12-13T01:13:47.774Z,-6.80
2022-12-13T01:17:09.490Z,-6.80
2022-12-13T01:20:31.131Z,-6.80
2022-12-13T01:23:52.687Z,-6.80
2022-12-13T01:27:15.582Z,-6.80
2022-12-13T01:30:37.179Z,-6.80
2022-12-13T01:33:58.814Z,-6.80
2022-12-13T01:37:20.377Z,-6.80
2022-12-13T01:40:49.216Z,-6.80
2022-12-13T01:44:25.647Z,-6.80
2022-12-13T01:47:51.416Z,-6.80
2022-12-13T01:51:15.198Z,-6.80
2022-12-13T01:54:38.825Z,-6.80
2022-12-13T01:58:08.423Z,-6.80
2022-12-13T02:01:30.207Z,-6.80
2022-12-13T02:04:55.729Z,-6.80
2022-12-13T02:08:17.843Z,-6.80
2022-12-13T02:11:41.635Z,-6.80
2022-12-13T02:15:04.496Z,-6.80
2022-12-13T02:18:33.447Z,-6.90
2022-12-13T02:22:03.815Z,-6.90
2022-12-13T02:25:35.566Z,-6.80
2022-12-13T02:29:05.171Z,-6.90
2022-12-13T02:32:30.798Z,-6.90
2022-12-13T02:35:55.308Z,-6.90
2022-12-13T02:39:30.252Z,-6.80
2022-12-13T02:42:56.926Z,-6.80
2022-12-13T02:46:19.984Z,-6.80
2022-12-13T02:49:46.068Z,-6.70
2022-12-13T02:53:09.335Z,-6.60
2022-12-13T02:56:30.934Z,-6.60
2022-12-13T02:59:52.677Z,-6.60
2022-12-13T03:03:19.089Z,-6.50
2022-12-13T03:06:47.830Z,-6.50
2022-12-13T03:10:14.899Z,-6.40
2022-12-13T03:13:41.744Z,-6.30
2022-12-13T03:17:05.358Z,-6.30
2022-12-13T03:20:27.775Z,-6.30
2022-12-13T03:23:50.670Z,-6.40
2022-12-13T03:27:12.284Z,-6.40
2022-12-13T03:30:33.896Z,-6.40
2022-12-13T03:33:55.442Z,-6.40
2022-12-13T03:37:17.015Z,-6.40
2022-12-13T03:40:39.956Z,-6.40
2022-12-13T03:44:04.135Z,-6.40
2022-12-13T03:47:25.675Z,-6.50
2022-12-13T03:50:47.316Z,-6.60
2022-12-13T03:54:08.871Z,-6.60
2022-12-13T03:57:31.751Z,-6.70
2022-12-13T04:00:53.284Z,-6.70
2022-12-13T04:04:14.825Z,-6.80
2022-12-13T04:07:36.365Z,-6.80
2022-12-13T04:10:58.048Z,-6.80
2022-12-13T04:14:21.541Z,-6.80
2022-12-13T04:17:44.003Z,-6.80
2022-12-13T04:21:12.624Z,-6.70
2022-12-13T04:24:34.183Z,-6.70
2022-12-13T04:27:55.720Z,-6.60
2022-12-13T04:31:18.651Z,-6.70
2022-12-13T04:34:40.211Z,-6.80
2022-12-13T04:38:01.803Z,-6.90
2022-12-13T04:41:23.348Z,-6.90
2022-12-13T04:44:46.259Z,-6.90
2022-12-13T04:48:09.300Z,-7.00
2022-12-13T04:51:30.859Z,-7.10
2022-12-13T04:54:55.658Z,-7.10
2022-12-13T04:58:22.866Z,-7.10
2022-12-13T05:01:44.739Z,-7.10
2022-12-13T05:05:08.369Z,-7.00
2022-12-13T05:08:29.969Z,-6.90
2022-12-13T05:11:51.588Z,-6.90
2022-12-13T05:15:13.246Z,-6.90
2022-12-13T05:18:35.347Z,-7.00
2022-12-13T05:21:58.261Z,-7.00
2022-12-13T05:25:23.314Z,-7.10
2022-12-13T05:28:44.858Z,-7.10
2022-12-13T05:32:06.486Z,-7.10
2022-12-13T05:35:28.071Z,-7.10
2022-12-13T05:38:50.993Z,-7.20
2022-12-13T05:42:12.552Z,-7.20
2022-12-13T05:45:34.210Z,-7.10
2022-12-13T05:48:55.805Z,-7.20
2022-12-13T05:52:17.647Z,-7.20
2022-12-13T05:55:40.542Z,-7.20
2022-12-13T05:59:02.097Z,-7.20
2022-12-13T06:02:23.741Z,-7.20
2022-12-13T06:05:45.405Z,-7.20
2022-12-13T06:09:06.999Z,-7.20
2022-12-13T06:12:31.063Z,-7.20
2022-12-13T06:16:01.489Z,-7.30
2022-12-13T06:19:23.715Z,-7.30
2022-12-13T06:22:45.274Z,-7.30
2022-12-13T06:26:07.296Z,-7.30
2022-12-13T06:29:30.179Z,-7.30
2022-12-13T06:32:51.724Z,-7.30
2022-12-13T06:36:13.300Z,-7.20
2022-12-13T06:39:35.080Z,-7.10
2022-12-13T06:42:56.659Z,-7.00
2022-12-13T06:46:19.551Z,-6.90
2022-12-13T06:49:42.501Z,-6.90
2022-12-13T06:53:04.567Z,-6.90
2022-12-13T06:56:26.098Z,-6.90
2022-12-13T06:59:47.648Z,-6.90
2022-12-13T07:03:11.121Z,-6.90
2022-12-13T07:06:32.705Z,-6.90
2022-12-13T07:09:54.276Z,-6.90
2022-12-13T07:13:15.850Z,-6.90
2022-12-13T07:16:37.404Z,-7.00
2022-12-13T07:20:01.044Z,-7.00
2022-12-13T07:23:24.530Z,-7.00
2022-12-13T07:26:46.620Z,-7.00
2022-12-13T07:30:08.723Z,-7.00
2022-12-13T07:33:30.257Z,-7.00
2022-12-13T07:36:53.151Z,-7.00
2022-12-13T07:40:14.790Z,-6.90
2022-12-13T07:43:36.539Z,-6.80
2022-12-13T07:46:58.125Z,-6.70
2022-12-13T07:50:24.611Z,-6.60
2022-12-13T07:53:48.588Z,-6.60
2022-12-13T07:57:10.161Z,-6.50
2022-12-13T08:00:31.686Z,-6.30
2022-12-13T08:03:54.682Z,-6.20
2022-12-13T08:07:16.262Z,-6.00
2022-12-13T08:10:39.182Z,-5.80
2022-12-13T08:14:00.768Z,-5.70
2022-12-13T08:17:22.284Z,-5.50
2022-12-13T08:20:43.819Z,-5.40
2022-12-13T08:24:05.562Z,-5.30
2022-12-13T08:27:28.459Z,-5.20
2022-12-13T08:30:50.696Z,-5.00
2022-12-13T08:34:12.240Z,-4.80
2022-12-13T08:37:33.787Z,-4.70
2022-12-13T08:40:58.409Z,-4.60
2022-12-13T08:44:21.509Z,-4.60
2022-12-13T08:47:43.060Z,-4.50
2022-12-13T08:51:05.545Z,-4.50
2022-12-13T08:54:31.146Z,-4.40
2022-12-13T08:57:53.314Z,-4.50
2022-12-13T09:01:16.230Z,-4.40
2022-12-13T09:04:37.786Z,-4.40
2022-12-13T09:07:59.462Z,-4.50
2022-12-13T09:11:34.961Z,-4.50
2022-12-13T09:15:00.997Z,-4.40
2022-12-13T09:18:27.926Z,-4.30
2022-12-13T09:22:02.288Z,-4.30
2022-12-13T09:25:24.670Z,-4.30
2022-12-13T09:28:46.323Z,-4.20
2022-12-13T09:32:07.964Z,-4.20
2022-12-13T09:35:30.913Z,-4.10
2022-12-13T09:38:52.458Z,-4.00
2022-12-13T09:42:17.885Z,-3.90
2022-12-13T09:45:43.965Z,-3.80
2022-12-13T09:49:13.282Z,-3.60
2022-12-13T09:52:39.017Z,-3.50
2022-12-13T09:56:10.826Z,-3.50
2022-12-13T09:59:34.702Z,-3.40
2022-12-13T10:02:57.530Z,-3.30
2022-12-13T10:06:23.392Z,-3.30
2022-12-13T10:09:46.811Z,-3.20
2022-12-13T10:13:13.326Z,-3.10
2022-12-13T10:16:42.209Z,-3.00
2022-12-13T10:20:04.674Z,-2.90
2022-12-13T10:24:07.417Z,-2.90
2022-12-13T10:27:12.155Z,-2.80
2022-12-13T10:30:39.498Z,-2.60
2022-12-13T10:34:01.055Z,-2.50
2022-12-13T10:37:29.446Z,-2.40
2022-12-13T10:40:51.013Z,-2.30
2022-12-13T10:44:21.462Z,-2.30
2022-12-13T10:47:43.573Z,-2.10
2022-12-13T10:51:06.369Z,-2.10
2022-12-13T10:54:29.722Z,-2.10
2022-12-13T10:58:01.787Z,-2.00
2022-12-13T11:01:28.399Z,-1.90
2022-12-13T11:04:51.702Z,-1.90
2022-12-13T11:08:20.835Z,-1.70
2022-12-13T11:11:43.666Z,-1.70
2022-12-13T11:15:06.417Z,-1.50
2022-12-13T11:18:33.569Z,-1.40
2022-12-13T11:21:55.190Z,-1.30
2022-12-13T11:25:20.017Z,-1.20
2022-12-13T11:28:53.701Z,-1.20
2022-12-13T11:32:22.538Z,-1.20
2022-12-13T11:35:54.707Z,-1.10
2022-12-13T11:39:19.562Z,-1.10
2022-12-13T11:42:43.079Z,-1.00
2022-12-13T11:46:10.567Z,-1.00
2022-12-13T11:49:35.477Z,-0.90
2022-12-13T11:52:59.511Z,-1.00
2022-12-13T11:56:24.721Z,-0.90
2022-12-13T11:59:49.766Z,-0.90
2022-12-13T12:03:16.351Z,-0.80
2022-12-13T12:06:39.108Z,-0.80
2022-12-13T12:10:11.607Z,-0.80
2022-12-13T12:13:35.196Z,-0.80
2022-12-13T12:17:14.721Z,-0.80
2022-12-13T12:20:42.035Z,-0.90
2022-12-13T12:24:08.812Z,-0.80
2022-12-13T12:27:35.110Z,-0.80
2022-12-13T12:31:02.029Z,-0.80
2022-12-13T12:34:29.166Z,-0.70
2022-12-13T12:37:52.601Z,-0.70
2022-12-13T12:41:26.924Z,-0.70
2022-12-13T12:44:53.894Z,-0.70
2022-12-13T12:52:06.822Z,-0.70
2022-12-13T12:55:36.069Z,-0.70
2022-12-13T12:59:02.429Z,-0.70
2022-12-13T13:02:31.161Z,-0.70
2022-12-13T13:06:01.956Z,-0.70
2022-12-13T13:09:24.370Z,-0.80
2022-12-13T13:12:46.608Z,-0.70
2022-12-13T13:16:28.050Z,-0.70
2022-12-13T13:19:57.098Z,-0.80
2022-12-13T13:23:40.040Z,-0.80
2022-12-13T13:27:17.564Z,-0.80
2022-12-13T13:30:59.511Z,-0.90
2022-12-13T13:34:23.385Z,-0.90
2022-12-13T13:37:47.394Z,-0.90
2022-12-13T13:41:23.826Z,-0.80
2022-12-13T13:44:56.471Z,-0.70
2022-12-13T13:48:23.461Z,-0.70
2022-12-13T13:55:47.373Z,-0.60
2022-12-13T13:59:29.918Z,-0.60
2022-12-13T14:03:22.574Z,-0.60
2022-12-13T14:07:26.605Z,-0.60
2022-12-13T14:10:56.006Z,-0.60
2022-12-13T14:14:38.816Z,-0.70
2022-12-13T14:18:21.341Z,-0.70
2022-12-13T14:22:01.171Z,-0.80
2022-12-13T14:25:40.189Z,-0.90
2022-12-13T14:29:10.050Z,-0.90
2022-12-13T14:32:34.076Z,-1.00
2022-12-13T14:35:56.450Z,-1.10
2022-12-13T14:39:25.217Z,-1.10
2022-12-13T14:42:51.281Z,-1.10
2022-12-13T14:46:15.108Z,-1.10
2022-12-13T14:49:38.963Z,-1.10
2022-12-13T14:53:01.068Z,-1.20
2022-12-13T14:56:28.475Z,-1.20
2022-12-13T14:59:52.573Z,-1.20
2022-12-13T15:03:22.482Z,-1.20
2022-12-13T15:06:48.520Z,-1.20
2022-12-13T15:10:19.905Z,-1.30
2022-12-13T15:13:42.995Z,-1.30
2022-12-13T15:17:05.028Z,-1.40
2022-12-13T15:20:32.581Z,-1.50
2022-12-13T15:23:54.994Z,-1.50
2022-12-13T15:27:17.164Z,-1.60
2022-12-13T15:30:39.004Z,-1.60
2022-12-13T15:34:28.753Z,-1.60
2022-12-13T15:37:53.133Z,-1.60
2022-12-13T15:41:16.927Z,-1.60
2022-12-13T15:44:40.886Z,-1.70
2022-12-13T15:48:02.490Z,-1.70
2022-12-13T15:51:29.662Z,-1.70
2022-12-13T15:55:00.528Z,-1.70
2022-12-13T15:58:24.420Z,-1.70
2022-12-13T16:01:52.462Z,-1.70
2022-12-13T16:05:22.802Z,-1.70
2022-12-13T16:08:44.452Z,-1.70
2022-12-13T16:12:07.767Z,-1.70
2022-12-13T16:15:30.172Z,-1.80
2022-12-13T16:18:53.129Z,-1.80
2022-12-13T16:22:14.753Z,-1.90
2022-12-13T16:25:36.353Z,-1.90
2022-12-13T16:28:59.292Z,-1.90
2022-12-13T16:32:20.990Z,-1.90
2022-12-13T16:35:42.663Z,-2.00
2022-12-13T16:39:04.525Z,-2.00
2022-12-13T16:42:27.226Z,-2.00
2022-12-13T16:45:52.349Z,-2.00
2022-12-13T16:49:17.928Z,-2.00
2022-12-13T16:52:39.515Z,-2.10
2022-12-13T16:56:01.297Z,-2.10
2022-12-13T16:59:24.138Z,-2.10
2022-12-13T17:02:47.140Z,-2.20
2022-12-13T17:06:10.014Z,-2.20
2022-12-13T17:09:33.520Z,-2.20
2022-12-13T17:12:55.176Z,-2.20
2022-12-13T17:16:16.820Z,-2.20
2022-12-13T17:19:39.801Z,-2.30
2022-12-13T17:23:01.531Z,-2.30
2022-12-13T17:26:23.467Z,-2.30
2022-12-13T17:29:46.680Z,-2.30
2022-12-13T17:33:08.305Z,-2.40
2022-12-13T17:36:31.280Z,-2.40
2022-12-13T17:39:52.960Z,-2.40
2022-12-13T17:43:22.994Z,-2.50
2022-12-13T17:46:54.656Z,-2.50
2022-12-13T17:50:17.086Z,-2.50
2022-12-13T17:53:41.081Z,-2.60
2022-12-13T17:57:02.795Z,-2.50
2022-12-13T18:00:24.440Z,-2.60
2022-12-13T18:03:46.458Z,-2.60
2022-12-13T18:07:08.103Z,-2.70
2022-12-13T18:10:31.136Z,-2.70
2022-12-13T18:13:54.570Z,-2.70
2022-12-13T18:17:16.784Z,-2.70
2022-12-13T18:20:38.463Z,-2.60
2022-12-13T18:24:00.123Z,-2.70
2022-12-13T18:27:23.159Z,-2.80
2022-12-13T18:30:44.869Z,-2.70
2022-12-13T18:34:06.827Z,-2.70
2022-12-13T18:37:29.949Z,-2.70
2022-12-13T18:40:51.644Z,-2.70
2022-12-13T18:44:15.600Z,-2.70
2022-12-13T18:47:37.246Z,-2.80
2022-12-13T18:51:00.028Z,-2.80
2022-12-13T18:54:21.954Z,-2.80
2022-12-13T18:57:43.589Z,-2.80
2022-12-13T19:01:07.557Z,-2.80
2022-12-13T19:04:29.180Z,-2.80
2022-12-13T19:07:50.876Z,-2.90
2022-12-13T19:11:12.502Z,-2.90
2022-12-13T19:14:34.110Z,-2.90
2022-12-13T19:17:57.067Z,-2.90
2022-12-13T19:21:19.795Z,-2.90
2022-12-13T19:24:41.454Z,-2.90
2022-12-13T19:28:03.163Z,-2.90
2022-12-13T19:31:30.465Z,-2.90
2022-12-13T19:34:54.928Z,-2.90
2022-12-13T19:38:16.566Z,-2.90
2022-12-13T19:41:38.237Z,-2.90
2022-12-13T19:44:59.828Z,-2.90
2022-12-13T19:48:21.450Z,-2.90
2022-12-13T19:51:44.403Z,-2.90
2022-12-13T19:55:06.599Z,-2.80
2022-12-13T19:58:28.183Z,-2.80
2022-12-13T20:01:49.933Z,-2.90
2022-12-13T20:05:11.558Z,-2.90
2022-12-13T20:08:34.752Z,-2.90
2022-12-13T20:11:56.378Z,-2.90
2022-12-13T20:15:17.977Z,-2.90
2022-12-13T20:18:39.569Z,-2.90
2022-12-13T20:22:01.165Z,-3.00
2022-12-13T20:25:24.168Z,-3.00
2022-12-13T20:28:45.989Z,-3.10
2022-12-13T20:32:07.897Z,-3.10
2022-12-13T20:35:29.487Z,-3.10
2022-12-13T20:38:51.644Z,-3.10
2022-12-13T20:42:14.663Z,-3.10
2022-12-13T20:45:36.264Z,-3.00
2022-12-13T20:48:58.584Z,-3.00
2022-12-13T20:52:20.186Z,-3.00
2022-12-13T20:55:42.411Z,-2.90
2022-12-13T20:59:12.317Z,-2.90
2022-12-13T21:02:33.942Z,-2.80
2022-12-13T21:05:55.580Z,-2.80
2022-12-13T21:09:17.209Z,-2.70
2022-12-13T21:12:38.826Z,-2.70
2022-12-13T21:16:06.233Z,-2.70
2022-12-13T21:19:30.955Z,-2.70
2022-12-13T21:22:56.210Z,-2.60
2022-12-13T21:26:17.968Z,-2.70
2022-12-13T21:29:39.665Z,-2.70
2022-12-13T21:33:02.603Z,-2.60
2022-12-13T21:36:25.283Z,-2.60
2022-12-13T21:39:46.967Z,-2.60
2022-12-13T21:43:08.568Z,-2.60
2022-12-13T21:46:55.121Z,-2.60
2022-12-13T21:50:13.334Z,-2.60
2022-12-13T21:53:34.917Z,-2.60
2022-12-13T21:56:56.522Z,-2.60
2022-12-13T22:00:18.103Z,-2.60
2022-12-13T22:03:39.679Z,-2.60
2022-12-13T22:07:04.540Z,-2.60
2022-12-13T22:10:26.189Z,-2.50
2022-12-13T22:13:48.288Z,-2.50
2022-12-13T22:17:11.409Z,-2.40
2022-12-13T22:20:33.053Z,-2.40
2022-12-13T22:23:56.207Z,-2.40
2022-12-13T22:27:18.125Z,-2.40
2022-12-13T22:30:39.986Z,-2.40
2022-12-13T22:34:01.606Z,-2.40
2022-12-13T22:37:23.675Z,-2.40
2022-12-13T22:40:46.649Z,-2.40
2022-12-13T22:44:08.811Z,-2.40
2022-12-13T22:47:30.411Z,-2.40
2022-12-13T22:50:51.989Z,-2.30
2022-12-13T22:54:13.823Z,-2.30
2022-12-13T22:57:36.783Z,-2.40
2022-12-13T23:00:58.526Z,-2.40
2022-12-13T23:04:20.186Z,-2.40
2022-12-13T23:07:41.772Z,-2.40
2022-12-13T23:11:10.895Z,-2.40
2022-12-13T23:14:34.273Z,-2.40
2022-12-13T23:17:55.868Z,-2.40
2022-12-13T23:21:17.962Z,-2.40
2022-12-13T23:24:39.546Z,-2.30
2022-12-13T23:28:01.145Z,-2.30
2022-12-13T23:31:25.012Z,-2.40
2022-12-13T23:34:46.675Z,-2.40
2022-12-13T23:38:08.268Z,-2.30
2022-12-13T23:41:33.728Z,-2.30
2022-12-13T23:44:55.762Z,-2.30
2022-12-13T23:48:23.713Z,-2.30
2022-12-13T23:51:48.284Z,-2.30
2022-12-13T23:55:09.883Z,-2.20
2022-12-13T23:58:31.469Z,-2.20
